Albany, New York
Traffic Map
Current Weather Conditions
Albany, New York
Overcast
Overcast
15°
Feels Like: 15°
Wind Chill: 15° Ceiling: 22000
Heat Index: 15° Visibility: 10mi
Dew Point: 12° Wind: 0mph
Humidity: 81% Direction: ° ()
Pressure: 29.97in Gusts: 0mph
Raw Report DataKALB 040751Z 00000KT 10SM FEW070 BKN220 OVC250 15/12 A2997 RMK AO2 SLP147 MOON DMLY VSBL T01500117
Traffic Incident Summary
Active as of:
Severity:
Category:
InformationThere was an issue retrieving the traffic information for this location. Please try a different location or try again shortly.
Advertisements
Track Severe Weather on mobile